sensor_id;sensor_type;location;lat;lon;timestamp;temperature;humidity
20005;DHT22;69160;45.498;-73.582;2023-08-17T00:00:43;24.00;99.90
20005;DHT22;69160;45.498;-73.582;2023-08-17T00:03:10;24.00;99.90
20005;DHT22;69160;45.498;-73.582;2023-08-17T00:05:37;24.00;99.90
20005;DHT22;69160;45.498;-73.582;2023-08-17T00:08:03;24.20;99.90
20005;DHT22;69160;45.498;-73.582;2023-08-17T00:10:29;24.20;99.90
20005;DHT22;69160;45.498;-73.582;2023-08-17T00:12:56;24.20;99.90
20005;DHT22;69160;45.498;-73.582;2023-08-17T00:15:22;24.20;99.90
20005;DHT22;69160;45.498;-73.582;2023-08-17T00:17:48;24.10;99.90
20005;DHT22;69160;45.498;-73.582;2023-08-17T00:20:15;24.20;99.90
20005;DHT22;69160;45.498;-73.582;2023-08-17T00:22:41;24.20;99.90
20005;DHT22;69160;45.498;-73.582;2023-08-17T00:25:08;24.10;99.90
20005;DHT22;69160;45.498;-73.582;2023-08-17T00:27:34;24.10;99.90
20005;DHT22;69160;45.498;-73.582;2023-08-17T00:30:00;24.20;99.90
20005;DHT22;69160;45.498;-73.582;2023-08-17T00:32:26;24.20;99.90
20005;DHT22;69160;45.498;-73.582;2023-08-17T00:34:53;24.20;99.90
20005;DHT22;69160;45.498;-73.582;2023-08-17T00:37:19;24.30;99.90
20005;DHT22;69160;45.498;-73.582;2023-08-17T00:39:45;24.30;99.90
20005;DHT22;69160;45.498;-73.582;2023-08-17T00:42:11;24.30;99.90
20005;DHT22;69160;45.498;-73.582;2023-08-17T00:44:37;24.40;99.90
20005;DHT22;69160;45.498;-73.582;2023-08-17T00:47:04;24.40;99.90
20005;DHT22;69160;45.498;-73.582;2023-08-17T00:49:30;24.30;99.90
20005;DHT22;69160;45.498;-73.582;2023-08-17T00:51:57;24.30;99.90
20005;DHT22;69160;45.498;-73.582;2023-08-17T00:54:25;24.20;99.90
20005;DHT22;69160;45.498;-73.582;2023-08-17T00:56:53;24.30;99.90
20005;DHT22;69160;45.498;-73.582;2023-08-17T00:59:32;24.30;99.90
20005;DHT22;69160;45.498;-73.582;2023-08-17T01:01:58;24.30;99.90
20005;DHT22;69160;45.498;-73.582;2023-08-17T01:04:24;24.20;99.90
20005;DHT22;69160;45.498;-73.582;2023-08-17T01:06:50;24.30;99.90
20005;DHT22;69160;45.498;-73.582;2023-08-17T01:09:16;24.40;99.90
20005;DHT22;69160;45.498;-73.582;2023-08-17T01:11:53;24.30;99.90
20005;DHT22;69160;45.498;-73.582;2023-08-17T01:14:28;24.30;99.90
20005;DHT22;69160;45.498;-73.582;2023-08-17T01:17:06;24.30;99.90
20005;DHT22;69160;45.498;-73.582;2023-08-17T01:19:38;24.20;99.90
20005;DHT22;69160;45.498;-73.582;2023-08-17T01:22:05;24.20;99.90
20005;DHT22;69160;45.498;-73.582;2023-08-17T01:24:34;24.20;99.90
20005;DHT22;69160;45.498;-73.582;2023-08-17T01:27:00;24.20;99.90
20005;DHT22;69160;45.498;-73.582;2023-08-17T01:29:26;24.20;99.90
20005;DHT22;69160;45.498;-73.582;2023-08-17T01:32:03;24.20;99.90
20005;DHT22;69160;45.498;-73.582;2023-08-17T01:34:38;24.20;99.90
20005;DHT22;69160;45.498;-73.582;2023-08-17T01:37:07;24.30;99.90
20005;DHT22;69160;45.498;-73.582;2023-08-17T01:39:42;24.20;99.90
20005;DHT22;69160;45.498;-73.582;2023-08-17T01:42:09;24.20;99.90
20005;DHT22;69160;45.498;-73.582;2023-08-17T01:44:37;24.20;99.90
20005;DHT22;69160;45.498;-73.582;2023-08-17T01:47:03;24.10;99.90
20005;DHT22;69160;45.498;-73.582;2023-08-17T01:49:30;24.10;99.90
20005;DHT22;69160;45.498;-73.582;2023-08-17T01:51:56;24.20;99.90
20005;DHT22;69160;45.498;-73.582;2023-08-17T01:54:23;24.20;99.90
20005;DHT22;69160;45.498;-73.582;2023-08-17T01:56:49;24.20;99.90
20005;DHT22;69160;45.498;-73.582;2023-08-17T01:59:15;24.20;99.90
20005;DHT22;69160;45.498;-73.582;2023-08-17T02:01:42;24.20;99.90
20005;DHT22;69160;45.498;-73.582;2023-08-17T02:04:08;24.20;99.90
20005;DHT22;69160;45.498;-73.582;2023-08-17T02:06:34;24.30;99.90
20005;DHT22;69160;45.498;-73.582;2023-08-17T02:09:00;24.20;99.90
20005;DHT22;69160;45.498;-73.582;2023-08-17T02:11:26;24.20;99.90
20005;DHT22;69160;45.498;-73.582;2023-08-17T02:13:52;24.00;99.90
20005;DHT22;69160;45.498;-73.582;2023-08-17T02:16:19;24.00;99.90
20005;DHT22;69160;45.498;-73.582;2023-08-17T02:18:45;24.00;99.90
20005;DHT22;69160;45.498;-73.582;2023-08-17T02:21:11;24.00;99.90
20005;DHT22;69160;45.498;-73.582;2023-08-17T02:23:37;24.10;99.90
20005;DHT22;69160;45.498;-73.582;2023-08-17T02:26:03;24.10;99.90
20005;DHT22;69160;45.498;-73.582;2023-08-17T02:28:29;24.10;99.90
20005;DHT22;69160;45.498;-73.582;2023-08-17T02:30:59;24.20;99.90
20005;DHT22;69160;45.498;-73.582;2023-08-17T02:33:25;24.20;99.90
20005;DHT22;69160;45.498;-73.582;2023-08-17T02:35:52;24.20;99.90
20005;DHT22;69160;45.498;-73.582;2023-08-17T02:38:18;24.20;99.90
20005;DHT22;69160;45.498;-73.582;2023-08-17T02:40:44;24.00;99.90
20005;DHT22;69160;45.498;-73.582;2023-08-17T02:43:10;24.00;99.90
20005;DHT22;69160;45.498;-73.582;2023-08-17T02:45:36;24.10;99.90
20005;DHT22;69160;45.498;-73.582;2023-08-17T02:48:03;24.10;99.90
20005;DHT22;69160;45.498;-73.582;2023-08-17T02:50:29;24.10;99.90
20005;DHT22;69160;45.498;-73.582;2023-08-17T02:52:55;24.10;99.90
20005;DHT22;69160;45.498;-73.582;2023-08-17T02:55:21;24.10;99.90
20005;DHT22;69160;45.498;-73.582;2023-08-17T02:57:47;24.20;99.90
20005;DHT22;69160;45.498;-73.582;2023-08-17T03:00:14;24.20;99.90
20005;DHT22;69160;45.498;-73.582;2023-08-17T03:02:40;24.20;99.90
20005;DHT22;69160;45.498;-73.582;2023-08-17T03:05:06;24.10;99.90
20005;DHT22;69160;45.498;-73.582;2023-08-17T03:07:32;24.10;99.90
20005;DHT22;69160;45.498;-73.582;2023-08-17T03:09:59;24.10;99.90
20005;DHT22;69160;45.498;-73.582;2023-08-17T03:12:25;24.10;99.90
20005;DHT22;69160;45.498;-73.582;2023-08-17T03:14:51;24.20;99.90
20005;DHT22;69160;45.498;-73.582;2023-08-17T03:17:17;24.10;99.90
20005;DHT22;69160;45.498;-73.582;2023-08-17T03:19:43;24.20;99.90
20005;DHT22;69160;45.498;-73.582;2023-08-17T03:22:09;24.20;99.90
20005;DHT22;69160;45.498;-73.582;2023-08-17T03:24:35;24.20;99.90
20005;DHT22;69160;45.498;-73.582;2023-08-17T03:27:01;24.20;99.90
20005;DHT22;69160;45.498;-73.582;2023-08-17T03:29:28;24.00;99.90
20005;DHT22;69160;45.498;-73.582;2023-08-17T03:31:54;24.00;99.90
20005;DHT22;69160;45.498;-73.582;2023-08-17T03:34:20;24.00;99.90
20005;DHT22;69160;45.498;-73.582;2023-08-17T03:36:46;24.10;99.90
20005;DHT22;69160;45.498;-73.582;2023-08-17T03:39:12;24.10;99.90
20005;DHT22;69160;45.498;-73.582;2023-08-17T03:41:38;24.10;99.90
20005;DHT22;69160;45.498;-73.582;2023-08-17T03:44:05;24.10;99.90
20005;DHT22;69160;45.498;-73.582;2023-08-17T03:46:31;24.20;99.90
20005;DHT22;69160;45.498;-73.582;2023-08-17T03:48:58;24.10;99.90
20005;DHT22;69160;45.498;-73.582;2023-08-17T03:51:24;24.20;99.90
20005;DHT22;69160;45.498;-73.582;2023-08-17T03:53:50;24.20;99.90
20005;DHT22;69160;45.498;-73.582;2023-08-17T03:56:16;24.10;99.90
20005;DHT22;69160;45.498;-73.582;2023-08-17T03:58:42;24.00;99.90
20005;DHT22;69160;45.498;-73.582;2023-08-17T04:01:09;23.90;99.90
20005;DHT22;69160;45.498;-73.582;2023-08-17T04:03:37;23.90;99.90
20005;DHT22;69160;45.498;-73.582;2023-08-17T04:06:06;23.90;99.90
20005;DHT22;69160;45.498;-73.582;2023-08-17T04:08:36;24.00;99.90
20005;DHT22;69160;45.498;-73.582;2023-08-17T04:11:03;24.00;99.90
20005;DHT22;69160;45.498;-73.582;2023-08-17T04:13:30;24.00;99.90
20005;DHT22;69160;45.498;-73.582;2023-08-17T04:15:56;24.00;99.90
20005;DHT22;69160;45.498;-73.582;2023-08-17T04:18:22;24.00;99.90
20005;DHT22;69160;45.498;-73.582;2023-08-17T04:20:48;24.10;99.90
20005;DHT22;69160;45.498;-73.582;2023-08-17T04:23:14;24.00;99.90
20005;DHT22;69160;45.498;-73.582;2023-08-17T04:25:41;24.00;99.90
20005;DHT22;69160;45.498;-73.582;2023-08-17T04:28:07;24.00;99.90
20005;DHT22;69160;45.498;-73.582;2023-08-17T04:30:34;23.90;99.90
20005;DHT22;69160;45.498;-73.582;2023-08-17T04:33:00;23.80;99.90
20005;DHT22;69160;45.498;-73.582;2023-08-17T04:35:26;23.80;99.90
20005;DHT22;69160;45.498;-73.582;2023-08-17T04:37:52;23.80;99.90
20005;DHT22;69160;45.498;-73.582;2023-08-17T04:40:18;23.90;99.90
20005;DHT22;69160;45.498;-73.582;2023-08-17T04:42:44;23.90;99.90
20005;DHT22;69160;45.498;-73.582;2023-08-17T04:45:10;23.80;99.90
20005;DHT22;69160;45.498;-73.582;2023-08-17T04:47:37;23.90;99.90
20005;DHT22;69160;45.498;-73.582;2023-08-17T04:50:03;23.90;99.90
20005;DHT22;69160;45.498;-73.582;2023-08-17T04:52:30;23.90;99.90
20005;DHT22;69160;45.498;-73.582;2023-08-17T04:54:56;24.00;99.90
20005;DHT22;69160;45.498;-73.582;2023-08-17T04:57:22;24.00;99.90
20005;DHT22;69160;45.498;-73.582;2023-08-17T04:59:48;23.90;99.90
20005;DHT22;69160;45.498;-73.582;2023-08-17T05:02:14;23.90;99.90
20005;DHT22;69160;45.498;-73.582;2023-08-17T05:04:41;23.80;99.90
20005;DHT22;69160;45.498;-73.582;2023-08-17T05:07:07;23.80;99.90
20005;DHT22;69160;45.498;-73.582;2023-08-17T05:09:33;23.80;99.90
20005;DHT22;69160;45.498;-73.582;2023-08-17T05:12:00;23.80;99.90
20005;DHT22;69160;45.498;-73.582;2023-08-17T05:14:26;23.80;99.90
20005;DHT22;69160;45.498;-73.582;2023-08-17T05:16:52;23.80;99.90
20005;DHT22;69160;45.498;-73.582;2023-08-17T05:19:18;23.80;99.90
20005;DHT22;69160;45.498;-73.582;2023-08-17T05:21:45;23.80;99.90
20005;DHT22;69160;45.498;-73.582;2023-08-17T05:24:11;23.80;99.90
20005;DHT22;69160;45.498;-73.582;2023-08-17T05:26:37;23.80;99.90
20005;DHT22;69160;45.498;-73.582;2023-08-17T05:29:03;23.80;99.90
20005;DHT22;69160;45.498;-73.582;2023-08-17T05:31:29;23.90;99.90
20005;DHT22;69160;45.498;-73.582;2023-08-17T05:33:55;23.90;99.90
20005;DHT22;69160;45.498;-73.582;2023-08-17T05:36:22;23.90;99.90
20005;DHT22;69160;45.498;-73.582;2023-08-17T05:38:48;23.80;99.90
20005;DHT22;69160;45.498;-73.582;2023-08-17T05:41:14;23.70;99.90
20005;DHT22;69160;45.498;-73.582;2023-08-17T05:43:42;23.70;99.90
20005;DHT22;69160;45.498;-73.582;2023-08-17T05:46:08;23.70;99.90
20005;DHT22;69160;45.498;-73.582;2023-08-17T05:48:34;23.70;99.90
20005;DHT22;69160;45.498;-73.582;2023-08-17T05:51:00;23.70;99.90
20005;DHT22;69160;45.498;-73.582;2023-08-17T05:53:26;23.70;99.90
20005;DHT22;69160;45.498;-73.582;2023-08-17T05:55:52;23.70;99.90
20005;DHT22;69160;45.498;-73.582;2023-08-17T05:58:19;23.70;99.90
20005;DHT22;69160;45.498;-73.582;2023-08-17T06:00:45;23.70;99.90
20005;DHT22;69160;45.498;-73.582;2023-08-17T06:03:11;23.80;99.90
20005;DHT22;69160;45.498;-73.582;2023-08-17T06:05:38;23.80;99.90
20005;DHT22;69160;45.498;-73.582;2023-08-17T06:08:05;23.80;99.90
20005;DHT22;69160;45.498;-73.582;2023-08-17T06:10:31;23.70;99.90
20005;DHT22;69160;45.498;-73.582;2023-08-17T06:12:57;23.70;99.90
20005;DHT22;69160;45.498;-73.582;2023-08-17T06:15:24;23.60;99.90
20005;DHT22;69160;45.498;-73.582;2023-08-17T06:17:50;23.60;99.90
20005;DHT22;69160;45.498;-73.582;2023-08-17T06:20:17;23.60;99.90
20005;DHT22;69160;45.498;-73.582;2023-08-17T06:22:43;23.60;99.90
20005;DHT22;69160;45.498;-73.582;2023-08-17T06:25:10;23.70;99.90
20005;DHT22;69160;45.498;-73.582;2023-08-17T06:27:36;23.60;99.90
20005;DHT22;69160;45.498;-73.582;2023-08-17T06:30:03;23.70;99.90
20005;DHT22;69160;45.498;-73.582;2023-08-17T06:32:30;23.70;99.90
20005;DHT22;69160;45.498;-73.582;2023-08-17T06:34:57;23.70;99.90
20005;DHT22;69160;45.498;-73.582;2023-08-17T06:37:23;23.70;99.90
20005;DHT22;69160;45.498;-73.582;2023-08-17T06:39:50;23.70;99.90
20005;DHT22;69160;45.498;-73.582;2023-08-17T06:42:16;23.70;99.90
20005;DHT22;69160;45.498;-73.582;2023-08-17T06:44:42;23.70;99.90
20005;DHT22;69160;45.498;-73.582;2023-08-17T06:47:08;23.70;99.90
20005;DHT22;69160;45.498;-73.582;2023-08-17T06:49:35;23.60;99.90
20005;DHT22;69160;45.498;-73.582;2023-08-17T06:52:01;23.50;99.90
20005;DHT22;69160;45.498;-73.582;2023-08-17T06:54:27;23.50;99.90
20005;DHT22;69160;45.498;-73.582;2023-08-17T06:56:53;23.60;99.90
20005;DHT22;69160;45.498;-73.582;2023-08-17T06:59:19;23.60;99.90
20005;DHT22;69160;45.498;-73.582;2023-08-17T07:01:46;23.60;99.90
20005;DHT22;69160;45.498;-73.582;2023-08-17T07:04:12;23.60;99.90
20005;DHT22;69160;45.498;-73.582;2023-08-17T07:06:38;23.70;99.90
20005;DHT22;69160;45.498;-73.582;2023-08-17T07:09:04;23.70;99.90
20005;DHT22;69160;45.498;-73.582;2023-08-17T07:11:31;23.70;99.90
20005;DHT22;69160;45.498;-73.582;2023-08-17T07:13:57;23.70;99.90
20005;DHT22;69160;45.498;-73.582;2023-08-17T07:16:24;23.60;99.90
20005;DHT22;69160;45.498;-73.582;2023-08-17T07:18:50;23.60;99.90
20005;DHT22;69160;45.498;-73.582;2023-08-17T07:21:16;23.60;99.90
20005;DHT22;69160;45.498;-73.582;2023-08-17T07:23:45;23.50;99.90
20005;DHT22;69160;45.498;-73.582;2023-08-17T07:26:12;23.40;99.90
20005;DHT22;69160;45.498;-73.582;2023-08-17T07:28:38;23.30;99.90
20005;DHT22;69160;45.498;-73.582;2023-08-17T07:31:04;23.30;99.90
20005;DHT22;69160;45.498;-73.582;2023-08-17T07:33:31;23.40;99.90
20005;DHT22;69160;45.498;-73.582;2023-08-17T07:35:57;23.40;99.90
20005;DHT22;69160;45.498;-73.582;2023-08-17T07:38:24;23.40;99.90
20005;DHT22;69160;45.498;-73.582;2023-08-17T07:40:50;23.40;99.90
20005;DHT22;69160;45.498;-73.582;2023-08-17T07:43:17;23.50;99.90
20005;DHT22;69160;45.498;-73.582;2023-08-17T07:45:43;23.50;99.90
20005;DHT22;69160;45.498;-73.582;2023-08-17T07:48:09;23.60;99.90
20005;DHT22;69160;45.498;-73.582;2023-08-17T07:50:35;23.60;99.90
20005;DHT22;69160;45.498;-73.582;2023-08-17T07:53:01;23.60;99.90
20005;DHT22;69160;45.498;-73.582;2023-08-17T07:55:27;23.50;99.90
20005;DHT22;69160;45.498;-73.582;2023-08-17T07:57:53;23.50;99.90
20005;DHT22;69160;45.498;-73.582;2023-08-17T08:00:20;23.60;99.90
20005;DHT22;69160;45.498;-73.582;2023-08-17T08:02:46;23.60;99.90
20005;DHT22;69160;45.498;-73.582;2023-08-17T08:05:13;23.60;99.90
20005;DHT22;69160;45.498;-73.582;2023-08-17T08:07:39;23.40;99.90
20005;DHT22;69160;45.498;-73.582;2023-08-17T08:10:06;23.30;99.90
20005;DHT22;69160;45.498;-73.582;2023-08-17T08:12:33;23.30;99.90
20005;DHT22;69160;45.498;-73.582;2023-08-17T08:14:59;23.30;99.90
20005;DHT22;69160;45.498;-73.582;2023-08-17T08:17:26;23.40;99.90
20005;DHT22;69160;45.498;-73.582;2023-08-17T08:19:52;23.50;99.90
20005;DHT22;69160;45.498;-73.582;2023-08-17T08:22:19;23.60;99.90
20005;DHT22;69160;45.498;-73.582;2023-08-17T08:24:46;23.60;99.90
20005;DHT22;69160;45.498;-73.582;2023-08-17T08:27:12;23.60;99.90
20005;DHT22;69160;45.498;-73.582;2023-08-17T08:29:38;23.60;99.90
20005;DHT22;69160;45.498;-73.582;2023-08-17T08:32:05;23.60;99.90
20005;DHT22;69160;45.498;-73.582;2023-08-17T08:34:31;23.50;99.90
20005;DHT22;69160;45.498;-73.582;2023-08-17T08:36:57;23.60;99.90
20005;DHT22;69160;45.498;-73.582;2023-08-17T08:39:25;23.60;99.90
20005;DHT22;69160;45.498;-73.582;2023-08-17T08:41:53;23.60;99.90
20005;DHT22;69160;45.498;-73.582;2023-08-17T08:44:19;23.60;99.90
20005;DHT22;69160;45.498;-73.582;2023-08-17T08:46:46;23.60;99.90
20005;DHT22;69160;45.498;-73.582;2023-08-17T08:49:19;23.60;99.90
20005;DHT22;69160;45.498;-73.582;2023-08-17T08:51:49;23.40;99.90
20005;DHT22;69160;45.498;-73.582;2023-08-17T08:54:21;23.30;99.90
20005;DHT22;69160;45.498;-73.582;2023-08-17T08:56:55;23.40;99.90
20005;DHT22;69160;45.498;-73.582;2023-08-17T08:59:24;23.40;99.90
20005;DHT22;69160;45.498;-73.582;2023-08-17T09:01:50;23.50;99.90
20005;DHT22;69160;45.498;-73.582;2023-08-17T09:04:17;23.60;99.90
20005;DHT22;69160;45.498;-73.582;2023-08-17T09:06:43;23.60;99.90
20005;DHT22;69160;45.498;-73.582;2023-08-17T09:09:10;23.60;99.90
20005;DHT22;69160;45.498;-73.582;2023-08-17T09:11:37;23.50;99.90
20005;DHT22;69160;45.498;-73.582;2023-08-17T09:14:06;23.50;99.90
20005;DHT22;69160;45.498;-73.582;2023-08-17T09:16:32;23.50;99.90
20005;DHT22;69160;45.498;-73.582;2023-08-17T09:18:59;23.60;99.90
20005;DHT22;69160;45.498;-73.582;2023-08-17T09:21:25;23.60;99.90
20005;DHT22;69160;45.498;-73.582;2023-08-17T09:23:55;23.60;99.90
20005;DHT22;69160;45.498;-73.582;2023-08-17T09:26:22;23.60;99.90
20005;DHT22;69160;45.498;-73.582;2023-08-17T09:28:51;23.50;99.90
20005;DHT22;69160;45.498;-73.582;2023-08-17T09:31:23;23.40;99.90
20005;DHT22;69160;45.498;-73.582;2023-08-17T09:33:51;23.30;99.90
20005;DHT22;69160;45.498;-73.582;2023-08-17T09:36:21;23.30;99.90
20005;DHT22;69160;45.498;-73.582;2023-08-17T09:38:48;23.40;99.90
20005;DHT22;69160;45.498;-73.582;2023-08-17T09:41:19;23.40;99.90
20005;DHT22;69160;45.498;-73.582;2023-08-17T09:43:46;23.40;99.90
20005;DHT22;69160;45.498;-73.582;2023-08-17T09:46:12;23.40;99.90
20005;DHT22;69160;45.498;-73.582;2023-08-17T09:48:39;23.40;99.90
20005;DHT22;69160;45.498;-73.582;2023-08-17T09:51:06;23.50;99.90
20005;DHT22;69160;45.498;-73.582;2023-08-17T09:53:35;23.50;99.90
20005;DHT22;69160;45.498;-73.582;2023-08-17T09:56:05;23.50;99.90
20005;DHT22;69160;45.498;-73.582;2023-08-17T09:58:38;23.50;99.90
20005;DHT22;69160;45.498;-73.582;2023-08-17T10:01:04;23.40;99.90
20005;DHT22;69160;45.498;-73.582;2023-08-17T10:03:34;23.40;99.90
20005;DHT22;69160;45.498;-73.582;2023-08-17T10:06:05;23.40;99.90
20005;DHT22;69160;45.498;-73.582;2023-08-17T10:08:36;23.50;99.90
20005;DHT22;69160;45.498;-73.582;2023-08-17T10:11:06;23.50;99.90
20005;DHT22;69160;45.498;-73.582;2023-08-17T10:22:11;23.30;99.90
20005;DHT22;69160;45.498;-73.582;2023-08-17T10:24:38;23.30;99.90
20005;DHT22;69160;45.498;-73.582;2023-08-17T10:27:06;23.30;99.90
20005;DHT22;69160;45.498;-73.582;2023-08-17T10:29:32;23.30;99.90
20005;DHT22;69160;45.498;-73.582;2023-08-17T10:32:00;23.30;99.90
20005;DHT22;69160;45.498;-73.582;2023-08-17T10:34:27;23.30;99.90
20005;DHT22;69160;45.498;-73.582;2023-08-17T10:36:54;23.30;99.90
20005;DHT22;69160;45.498;-73.582;2023-08-17T10:39:25;23.30;99.90
20005;DHT22;69160;45.498;-73.582;2023-08-17T10:41:52;23.40;99.90
20005;DHT22;69160;45.498;-73.582;2023-08-17T10:44:45;23.50;99.90
20005;DHT22;69160;45.498;-73.582;2023-08-17T10:47:31;23.50;99.90
20005;DHT22;69160;45.498;-73.582;2023-08-17T10:50:20;23.50;99.90
20005;DHT22;69160;45.498;-73.582;2023-08-17T10:52:48;23.40;99.90
20005;DHT22;69160;45.498;-73.582;2023-08-17T10:55:15;23.40;99.90
20005;DHT22;69160;45.498;-73.582;2023-08-17T10:57:43;23.50;99.90
20005;DHT22;69160;45.498;-73.582;2023-08-17T11:02:44;23.30;99.90
20005;DHT22;69160;45.498;-73.582;2023-08-17T11:05:11;23.20;99.90
20005;DHT22;69160;45.498;-73.582;2023-08-17T11:07:44;23.20;99.90
20005;DHT22;69160;45.498;-73.582;2023-08-17T11:10:28;23.20;99.90
20005;DHT22;69160;45.498;-73.582;2023-08-17T11:12:55;23.30;99.90
20005;DHT22;69160;45.498;-73.582;2023-08-17T11:15:39;23.30;99.90
20005;DHT22;69160;45.498;-73.582;2023-08-17T11:18:08;23.30;99.90
20005;DHT22;69160;45.498;-73.582;2023-08-17T11:20:35;23.30;99.90
20005;DHT22;69160;45.498;-73.582;2023-08-17T11:23:04;23.30;99.90
20005;DHT22;69160;45.498;-73.582;2023-08-17T11:25:32;23.30;99.90
20005;DHT22;69160;45.498;-73.582;2023-08-17T11:28:02;23.30;99.90
20005;DHT22;69160;45.498;-73.582;2023-08-17T11:30:29;23.30;99.90
20005;DHT22;69160;45.498;-73.582;2023-08-17T11:32:56;23.30;99.90
20005;DHT22;69160;45.498;-73.582;2023-08-17T11:35:22;23.40;99.90
20005;DHT22;69160;45.498;-73.582;2023-08-17T11:37:49;23.40;99.90
20005;DHT22;69160;45.498;-73.582;2023-08-17T11:40:16;23.30;99.90
20005;DHT22;69160;45.498;-73.582;2023-08-17T11:42:43;23.10;99.90
20005;DHT22;69160;45.498;-73.582;2023-08-17T11:45:09;23.20;99.90
20005;DHT22;69160;45.498;-73.582;2023-08-17T11:47:39;23.30;99.90
20005;DHT22;69160;45.498;-73.582;2023-08-17T11:50:08;23.30;99.90
20005;DHT22;69160;45.498;-73.582;2023-08-17T11:52:34;23.30;99.90
20005;DHT22;69160;45.498;-73.582;2023-08-17T11:55:08;23.30;99.90
20005;DHT22;69160;45.498;-73.582;2023-08-17T11:57:36;23.30;99.90
20005;DHT22;69160;45.498;-73.582;2023-08-17T12:00:04;23.40;99.90
20005;DHT22;69160;45.498;-73.582;2023-08-17T12:02:38;23.40;99.90
20005;DHT22;69160;45.498;-73.582;2023-08-17T12:05:08;23.30;99.90
20005;DHT22;69160;45.498;-73.582;2023-08-17T12:07:35;23.40;99.90
20005;DHT22;69160;45.498;-73.582;2023-08-17T12:10:05;23.40;99.90
20005;DHT22;69160;45.498;-73.582;2023-08-17T12:12:35;23.50;99.90
20005;DHT22;69160;45.498;-73.582;2023-08-17T12:15:03;23.50;99.90
20005;DHT22;69160;45.498;-73.582;2023-08-17T12:17:30;23.40;99.90
20005;DHT22;69160;45.498;-73.582;2023-08-17T12:19:56;23.40;99.90
20005;DHT22;69160;45.498;-73.582;2023-08-17T12:22:25;23.40;99.90
20005;DHT22;69160;45.498;-73.582;2023-08-17T12:24:52;23.30;99.90
20005;DHT22;69160;45.498;-73.582;2023-08-17T12:27:18;23.40;99.90
20005;DHT22;69160;45.498;-73.582;2023-08-17T12:29:51;23.40;99.90
20005;DHT22;69160;45.498;-73.582;2023-08-17T12:32:19;23.50;99.90
20005;DHT22;69160;45.498;-73.582;2023-08-17T12:34:46;23.50;99.90
20005;DHT22;69160;45.498;-73.582;2023-08-17T12:37:17;23.60;99.90
20005;DHT22;69160;45.498;-73.582;2023-08-17T12:39:44;23.50;99.90
20005;DHT22;69160;45.498;-73.582;2023-08-17T12:42:10;23.60;99.90
20005;DHT22;69160;45.498;-73.582;2023-08-17T12:44:36;23.60;99.90
20005;DHT22;69160;45.498;-73.582;2023-08-17T12:47:02;23.70;99.90
20005;DHT22;69160;45.498;-73.582;2023-08-17T12:49:28;23.60;99.90
20005;DHT22;69160;45.498;-73.582;2023-08-17T12:51:54;23.50;99.90
20005;DHT22;69160;45.498;-73.582;2023-08-17T12:54:21;23.40;99.90
20005;DHT22;69160;45.498;-73.582;2023-08-17T12:56:47;23.40;99.90
20005;DHT22;69160;45.498;-73.582;2023-08-17T12:59:13;23.40;99.90
20005;DHT22;69160;45.498;-73.582;2023-08-17T13:01:39;23.50;99.90
20005;DHT22;69160;45.498;-73.582;2023-08-17T13:04:06;23.50;99.90
20005;DHT22;69160;45.498;-73.582;2023-08-17T13:06:32;23.50;99.90
20005;DHT22;69160;45.498;-73.582;2023-08-17T13:08:58;23.60;99.90
20005;DHT22;69160;45.498;-73.582;2023-08-17T13:11:24;23.60;99.90
20005;DHT22;69160;45.498;-73.582;2023-08-17T13:13:50;23.60;99.90
20005;DHT22;69160;45.498;-73.582;2023-08-17T13:16:17;23.60;99.90
20005;DHT22;69160;45.498;-73.582;2023-08-17T13:18:43;23.60;99.90
20005;DHT22;69160;45.498;-73.582;2023-08-17T13:21:09;23.50;99.90
20005;DHT22;69160;45.498;-73.582;2023-08-17T13:23:35;23.50;99.90
20005;DHT22;69160;45.498;-73.582;2023-08-17T13:26:01;23.40;99.90
20005;DHT22;69160;45.498;-73.582;2023-08-17T13:28:27;23.40;99.90
20005;DHT22;69160;45.498;-73.582;2023-08-17T13:30:53;23.40;99.90
20005;DHT22;69160;45.498;-73.582;2023-08-17T13:33:19;23.40;99.90
20005;DHT22;69160;45.498;-73.582;2023-08-17T13:35:46;23.50;99.90
20005;DHT22;69160;45.498;-73.582;2023-08-17T13:38:12;23.40;99.90
20005;DHT22;69160;45.498;-73.582;2023-08-17T13:40:38;23.50;99.90
20005;DHT22;69160;45.498;-73.582;2023-08-17T13:43:05;23.50;99.90
20005;DHT22;69160;45.498;-73.582;2023-08-17T13:45:38;23.50;99.90
20005;DHT22;69160;45.498;-73.582;2023-08-17T13:48:08;23.50;99.90
20005;DHT22;69160;45.498;-73.582;2023-08-17T13:50:38;23.50;99.90
20005;DHT22;69160;45.498;-73.582;2023-08-17T13:53:05;23.50;99.90
20005;DHT22;69160;45.498;-73.582;2023-08-17T13:55:31;23.40;99.90
20005;DHT22;69160;45.498;-73.582;2023-08-17T13:57:57;23.40;99.90
20005;DHT22;69160;45.498;-73.582;2023-08-17T14:00:24;23.50;99.90
20005;DHT22;69160;45.498;-73.582;2023-08-17T14:02:52;23.50;99.90
20005;DHT22;69160;45.498;-73.582;2023-08-17T14:05:19;23.60;99.90
20005;DHT22;69160;45.498;-73.582;2023-08-17T14:07:45;23.70;99.90
20005;DHT22;69160;45.498;-73.582;2023-08-17T14:10:11;23.80;99.90
20005;DHT22;69160;45.498;-73.582;2023-08-17T14:12:37;23.80;99.90
20005;DHT22;69160;45.498;-73.582;2023-08-17T14:15:04;23.70;99.90
20005;DHT22;69160;45.498;-73.582;2023-08-17T14:17:30;23.70;99.90
20005;DHT22;69160;45.498;-73.582;2023-08-17T14:19:56;23.60;99.90
20005;DHT22;69160;45.498;-73.582;2023-08-17T14:22:22;23.60;99.90
20005;DHT22;69160;45.498;-73.582;2023-08-17T14:24:48;23.60;99.90
20005;DHT22;69160;45.498;-73.582;2023-08-17T14:27:14;23.70;99.90
20005;DHT22;69160;45.498;-73.582;2023-08-17T14:29:40;23.70;99.90
20005;DHT22;69160;45.498;-73.582;2023-08-17T14:32:07;23.80;99.90
20005;DHT22;69160;45.498;-73.582;2023-08-17T14:34:33;23.70;99.90
20005;DHT22;69160;45.498;-73.582;2023-08-17T14:36:59;23.60;99.90
20005;DHT22;69160;45.498;-73.582;2023-08-17T14:39:25;23.60;99.90
20005;DHT22;69160;45.498;-73.582;2023-08-17T14:41:51;23.60;99.90
20005;DHT22;69160;45.498;-73.582;2023-08-17T14:44:18;23.60;99.90
20005;DHT22;69160;45.498;-73.582;2023-08-17T14:46:44;23.70;99.90
20005;DHT22;69160;45.498;-73.582;2023-08-17T15:01:53;23.70;99.90
20005;DHT22;69160;45.498;-73.582;2023-08-17T15:04:21;23.50;99.90
20005;DHT22;69160;45.498;-73.582;2023-08-17T15:06:47;23.60;99.90
20005;DHT22;69160;45.498;-73.582;2023-08-17T15:09:14;23.60;99.90
20005;DHT22;69160;45.498;-73.582;2023-08-17T15:11:40;23.70;99.90
20005;DHT22;69160;45.498;-73.582;2023-08-17T15:14:06;23.80;99.90
20005;DHT22;69160;45.498;-73.582;2023-08-17T15:16:32;23.80;99.90
20005;DHT22;69160;45.498;-73.582;2023-08-17T15:18:58;23.90;99.90
20005;DHT22;69160;45.498;-73.582;2023-08-17T15:21:25;23.90;99.90
20005;DHT22;69160;45.498;-73.582;2023-08-17T15:23:51;23.70;99.90
20005;DHT22;69160;45.498;-73.582;2023-08-17T15:26:17;23.60;99.90